Time;durP1;ratioP1;P1;durP2;ratioP2;P2;SDS_P1;SDS_P2;PMS_P1;PMS_P2;Temp;Humidity;BMP_temperature;BMP_pressure;BME280_temperature;BME280_humidity;BME280_pressure;Samples;Min_cycle;Max_cycle;Signal;HPM_P1;HPM_P2
2023/03/18 00:01:33;;;;;;;24.35;11.80;;;;;;;3.58;100.00;100997.09;5059496;28;20036;-69
2023/03/18 00:04:00;;;;;;;19.85;11.00;;;;;;;3.55;100.00;100992.13;5064712;28;20025;-68
2023/03/18 00:06:25;;;;;;;21.15;11.77;;;;;;;3.48;100.00;101000.28;5065996;28;20093;-70
2023/03/18 00:08:51;;;;;;;18.58;11.80;;;;;;;3.43;100.00;101000.53;5065781;28;20029;-69
2023/03/18 00:11:20;;;;;;;17.30;10.40;;;;;;;3.42;100.00;100998.88;5060516;28;20037;-69
2023/03/18 00:13:46;;;;;;;19.38;10.98;;;;;;;3.49;100.00;100995.03;5063621;28;20058;-70
2023/03/18 00:16:13;;;;;;;21.60;11.27;;;;;;;3.48;100.00;101001.09;5061497;28;20120;-69
2023/03/18 00:18:39;;;;;;;18.00;11.05;;;;;;;3.44;100.00;101001.38;5062163;28;20462;-69
2023/03/18 00:21:05;;;;;;;17.40;10.30;;;;;;;3.34;100.00;100998.47;5058588;28;20079;-69
2023/03/18 00:23:32;;;;;;;17.80;10.57;;;;;;;3.41;100.00;101001.53;5061058;28;20049;-69
2023/03/18 00:25:59;;;;;;;18.20;10.38;;;;;;;3.33;100.00;101000.22;5062688;28;21089;-69
2023/03/18 00:28:25;;;;;;;19.67;11.43;;;;;;;3.25;100.00;100999.84;5061732;28;20316;-69
2023/03/18 00:30:52;;;;;;;18.55;10.73;;;;;;;3.20;100.00;100998.41;5067081;28;20551;-69
2023/03/18 00:33:18;;;;;;;20.52;11.20;;;;;;;3.20;100.00;100999.25;5061745;28;20024;-70
2023/03/18 00:35:45;;;;;;;18.38;10.90;;;;;;;3.16;100.00;100997.75;5059304;28;20036;-70
2023/03/18 00:38:19;;;;;;;16.13;10.00;;;;;;;3.15;100.00;101000.41;5062596;28;20028;-69
2023/03/18 00:40:52;;;;;;;17.00;10.15;;;;;;;3.10;100.00;101002.41;5058633;28;20021;-69
2023/03/18 00:43:28;;;;;;;18.73;10.43;;;;;;;3.08;100.00;100991.38;5055749;28;20497;-69
2023/03/18 00:45:55;;;;;;;18.25;9.85;;;;;;;3.25;100.00;100988.69;5055508;28;20072;-69
2023/03/18 00:48:22;;;;;;;20.27;10.80;;;;;;;3.23;100.00;100991.34;5063016;28;20024;-69
2023/03/18 00:50:48;;;;;;;17.58;10.10;;;;;;;3.19;100.00;100989.03;5056580;28;20098;-69
2023/03/18 00:53:14;;;;;;;14.15;8.98;;;;;;;3.16;100.00;100987.47;5060538;28;20048;-69
2023/03/18 00:55:40;;;;;;;16.80;9.18;;;;;;;3.11;100.00;100988.63;5060707;28;20438;-69
2023/03/18 00:58:07;;;;;;;18.10;9.55;;;;;;;3.12;100.00;100983.38;5059947;28;20066;-69
2023/03/18 01:00:34;;;;;;;19.60;10.82;;;;;;;3.17;100.00;100978.00;5059833;28;20264;-70
2023/03/18 01:03:00;;;;;;;15.98;10.30;;;;;;;3.17;100.00;100978.81;5063860;28;20036;-70
2023/03/18 01:05:26;;;;;;;17.80;10.35;;;;;;;3.13;100.00;100981.66;5061835;28;20090;-69
2023/03/18 01:07:52;;;;;;;17.33;9.52;;;;;;;3.04;100.00;100970.09;5060342;28;20033;-68
2023/03/18 01:10:18;;;;;;;17.48;9.35;;;;;;;2.98;100.00;100975.59;5059832;28;20449;-70
2023/03/18 01:12:46;;;;;;;16.27;8.63;;;;;;;2.97;100.00;100976.50;5063615;28;20059;-69
2023/03/18 01:15:14;;;;;;;17.02;9.98;;;;;;;2.91;100.00;100979.41;5063470;28;20048;-69
2023/03/18 01:17:39;;;;;;;13.50;8.88;;;;;;;2.85;100.00;100972.84;5062907;28;20017;-68
2023/03/18 01:20:05;;;;;;;16.10;10.05;;;;;;;2.82;100.00;100973.03;5063103;28;20085;-70
2023/03/18 01:22:31;;;;;;;18.88;9.98;;;;;;;2.82;100.00;100969.63;5059299;28;20059;-69
2023/03/18 01:24:57;;;;;;;17.30;9.48;;;;;;;2.80;100.00;100966.31;5066058;28;20121;-70
2023/03/18 01:27:23;;;;;;;20.13;9.57;;;;;;;2.78;100.00;100968.13;5061575;28;20036;-69
2023/03/18 01:29:49;;;;;;;17.25;9.65;;;;;;;2.72;100.00;100960.75;5064440;28;20028;-69
2023/03/18 01:32:15;;;;;;;15.15;9.60;;;;;;;2.71;100.00;100962.47;5065060;28;20037;-69
2023/03/18 01:34:40;;;;;;;16.98;10.25;;;;;;;2.70;100.00;100958.25;5057059;28;20025;-69
2023/03/18 01:37:06;;;;;;;20.15;10.82;;;;;;;2.66;100.00;100960.16;5057927;28;20399;-69
2023/03/18 01:39:33;;;;;;;16.20;9.55;;;;;;;2.65;100.00;100957.66;5058809;28;20068;-69
2023/03/18 01:41:59;;;;;;;20.10;9.75;;;;;;;2.59;100.00;100953.66;5065814;28;20037;-69
2023/03/18 01:44:24;;;;;;;16.05;9.82;;;;;;;2.52;100.00;100943.78;5056368;28;20443;-69
2023/03/18 01:46:51;;;;;;;17.17;9.95;;;;;;;2.48;100.00;100940.53;5059320;28;20029;-69
2023/03/18 01:49:42;;;;;;;15.93;10.30;;;;;;;2.52;100.00;100946.34;5055579;28;20071;-69
2023/03/18 01:52:30;;;;;;;21.15;9.68;;;;;;;2.51;100.00;100939.56;5054732;28;20827;-69
2023/03/18 01:54:59;;;;;;;16.17;9.85;;;;;;;2.56;100.00;100946.13;5053508;28;20127;-69
2023/03/18 01:57:25;;;;;;;18.15;10.10;;;;;;;2.58;100.00;100941.72;5062297;28;20041;-68
2023/03/18 01:59:52;;;;;;;18.75;9.43;;;;;;;2.63;100.00;100941.47;5056299;28;20150;-69
2023/03/18 02:02:19;;;;;;;15.75;9.38;;;;;;;2.64;100.00;100938.00;5060441;28;20031;-68
2023/03/18 02:04:53;;;;;;;15.73;9.63;;;;;;;2.63;100.00;100928.63;5059880;28;20035;-68
2023/03/18 02:07:32;;;;;;;16.60;9.15;;;;;;;2.59;100.00;100935.66;5054801;28;20055;-71
2023/03/18 02:10:01;;;;;;;15.38;9.82;;;;;;;2.59;100.00;100925.38;5060081;28;20450;-67
2023/03/18 02:12:30;;;;;;;17.08;8.98;;;;;;;2.56;100.00;100929.84;5061907;28;20045;-68
2023/03/18 02:14:57;;;;;;;17.50;9.18;;;;;;;2.52;100.00;100929.19;5059972;28;20119;-67
2023/03/18 02:17:26;;;;;;;19.48;10.02;;;;;;;2.49;100.00;100926.78;5062578;28;20056;-69
2023/03/18 02:19:55;;;;;;;16.10;10.20;;;;;;;2.47;100.00;100927.75;5065102;28;20098;-67
2023/03/18 02:22:32;;;;;;;15.55;9.13;;;;;;;2.48;100.00;100924.28;5065920;28;20454;-68
2023/03/18 02:25:21;;;;;;;19.83;10.15;;;;;;;2.47;100.00;100922.63;5064915;28;20078;-68
2023/03/18 02:27:59;;;;;;;21.42;9.98;;;;;;;2.47;100.00;100927.75;5060933;28;20029;-70
2023/03/18 02:30:30;;;;;;;20.08;10.25;;;;;;;2.50;100.00;100922.47;5063574;28;20028;-69
2023/03/18 02:32:57;;;;;;;17.80;11.07;;;;;;;2.47;100.00;100920.03;5066141;28;20032;-70
2023/03/18 02:35:24;;;;;;;16.52;10.20;;;;;;;2.46;100.00;100920.97;5064401;28;20037;-70
2023/03/18 02:37:49;;;;;;;17.73;10.75;;;;;;;2.51;100.00;100922.38;5066749;28;20112;-70
2023/03/18 02:40:22;;;;;;;17.48;9.85;;;;;;;2.48;100.00;100914.00;5064276;28;20643;-69
2023/03/18 02:42:48;;;;;;;16.70;10.63;;;;;;;2.49;100.00;100915.66;5063964;28;20075;-69
2023/03/18 02:46:00;;;;;;;14.85;9.52;;;;;;;2.48;100.00;100919.13;5058975;28;20060;-70
2023/03/18 02:48:32;;;;;;;21.85;10.95;;;;;;;2.48;100.00;100909.69;5055185;28;20390;-69
2023/03/18 02:50:57;;;;;;;17.50;9.73;;;;;;;2.47;100.00;100912.31;5059954;28;20042;-69
2023/03/18 02:53:23;;;;;;;19.40;10.27;;;;;;;2.47;100.00;100904.63;5061355;28;20017;-69
2023/03/18 02:55:48;;;;;;;19.13;10.43;;;;;;;2.51;100.00;100909.50;5064703;28;20040;-69
2023/03/18 02:58:14;;;;;;;19.13;10.52;;;;;;;2.51;100.00;100912.09;5065159;28;20039;-69
2023/03/18 03:00:39;;;;;;;18.33;11.05;;;;;;;2.46;100.00;100915.81;5060888;28;20036;-69
2023/03/18 03:03:05;;;;;;;15.70;10.45;;;;;;;2.41;100.00;100913.47;5064796;28;20032;-68
2023/03/18 03:05:32;;;;;;;19.48;11.57;;;;;;;2.39;100.00;100920.44;5065015;28;20367;-69
2023/03/18 03:07:58;;;;;;;18.83;11.13;;;;;;;2.35;100.00;100920.72;5061871;28;20376;-68
2023/03/18 03:10:23;;;;;;;18.02;9.75;;;;;;;2.31;100.00;100913.16;5060401;28;20040;-69
2023/03/18 03:12:49;;;;;;;16.50;10.02;;;;;;;2.29;100.00;100914.97;5065514;28;21134;-69
2023/03/18 03:15:14;;;;;;;17.77;10.55;;;;;;;2.26;100.00;100915.16;5064326;28;20415;-68
2023/03/18 03:17:40;;;;;;;13.50;9.30;;;;;;;2.22;100.00;100913.66;5061833;28;20025;-69
2023/03/18 03:20:07;;;;;;;16.05;10.57;;;;;;;2.18;100.00;100922.44;5061253;28;20033;-69
2023/03/18 03:22:34;;;;;;;19.55;10.90;;;;;;;2.14;100.00;100920.91;5063822;28;20127;-69
2023/03/18 03:25:00;;;;;;;16.58;10.52;;;;;;;2.14;100.00;100917.53;5060825;28;20037;-69
2023/03/18 03:27:27;;;;;;;18.88;10.85;;;;;;;2.17;100.00;100915.63;5062550;28;20115;-69
2023/03/18 03:29:52;;;;;;;14.50;10.20;;;;;;;2.16;100.00;100920.84;5064597;28;20060;-69
2023/03/18 03:32:18;;;;;;;16.75;10.43;;;;;;;2.11;100.00;100921.09;5062569;28;20457;-69
2023/03/18 03:34:44;;;;;;;18.40;10.57;;;;;;;2.12;100.00;100927.88;5063271;28;20020;-69
2023/03/18 03:37:09;;;;;;;21.70;11.82;;;;;;;2.11;100.00;100925.38;5059627;28;20040;-68
2023/03/18 03:39:35;;;;;;;19.48;11.35;;;;;;;2.07;100.00;100922.16;5064000;28;20060;-69
2023/03/18 03:42:00;;;;;;;16.52;9.77;;;;;;;2.02;100.00;100934.41;5063951;28;20025;-69
2023/03/18 03:44:26;;;;;;;22.27;11.40;;;;;;;1.98;100.00;100925.19;5059606;28;20472;-69
2023/03/18 03:46:51;;;;;;;18.95;11.13;;;;;;;1.95;100.00;100931.31;5063459;28;20763;-68
2023/03/18 03:49:17;;;;;;;19.33;11.10;;;;;;;1.91;100.00;100928.97;5061725;28;20366;-69
2023/03/18 03:51:43;;;;;;;20.45;11.02;;;;;;;1.89;100.00;100928.25;5060472;28;20036;-68
2023/03/18 03:54:12;;;;;;;20.95;11.55;;;;;;;1.86;100.00;100930.97;5059889;28;20067;-69
2023/03/18 03:56:38;;;;;;;22.92;12.00;;;;;;;1.79;100.00;100933.03;5062350;28;20098;-69
2023/03/18 03:59:03;;;;;;;22.15;12.32;;;;;;;1.76;100.00;100929.78;5062630;28;20032;-68
2023/03/18 04:01:29;;;;;;;25.15;12.93;;;;;;;1.74;100.00;100931.59;5065335;28;20047;-69
2023/03/18 04:03:55;;;;;;;20.58;12.48;;;;;;;1.75;100.00;100933.25;5059159;28;20040;-69
2023/03/18 04:06:20;;;;;;;22.33;12.13;;;;;;;1.71;100.00;100934.31;5062532;28;20037;-69
2023/03/18 04:08:46;;;;;;;25.90;14.02;;;;;;;1.71;100.00;100926.59;5064340;28;20485;-69
2023/03/18 04:11:12;;;;;;;27.65;14.50;;;;;;;1.74;100.00;100926.44;5063244;28;20040;-68
2023/03/18 04:13:37;;;;;;;21.23;12.85;;;;;;;1.73;100.00;100929.91;5060399;28;20029;-69
2023/03/18 04:16:03;;;;;;;20.45;12.55;;;;;;;1.72;100.00;100929.09;5060545;28;20032;-68
2023/03/18 04:18:29;;;;;;;20.38;13.45;;;;;;;1.68;100.00;100932.72;5061845;28;20025;-68
2023/03/18 04:20:54;;;;;;;22.70;13.77;;;;;;;1.75;100.00;100930.69;5063950;28;20028;-69
2023/03/18 04:23:20;;;;;;;22.17;14.40;;;;;;;1.80;100.00;100931.28;5061282;28;20041;-69
2023/03/18 04:25:46;;;;;;;23.90;14.00;;;;;;;1.79;100.00;100924.47;5061116;28;20045;-69
2023/03/18 04:28:12;;;;;;;26.80;13.10;;;;;;;1.78;100.00;100927.94;5059993;28;20047;-70
2023/03/18 04:30:38;;;;;;;25.83;14.98;;;;;;;1.73;100.00;100930.75;5063940;28;20032;-69
2023/03/18 04:33:04;;;;;;;19.92;12.02;;;;;;;1.70;100.00;100928.34;5061809;28;20046;-69
2023/03/18 04:35:30;;;;;;;24.08;13.13;;;;;;;1.68;100.00;100925.00;5064065;28;20151;-69
2023/03/18 04:37:56;;;;;;;23.40;12.02;;;;;;;1.67;100.00;100925.91;5058931;28;20545;-70
2023/03/18 04:40:21;;;;;;;20.63;12.50;;;;;;;1.66;100.00;100924.25;5060382;28;20124;-69
2023/03/18 04:42:47;;;;;;;22.67;11.95;;;;;;;1.62;100.00;100927.88;5062457;28;20055;-68
2023/03/18 04:45:14;;;;;;;25.02;13.30;;;;;;;1.62;100.00;100926.16;5064494;28;20125;-70
2023/03/18 04:47:40;;;;;;;21.73;12.50;;;;;;;1.65;100.00;100923.41;5058406;28;20385;-69
2023/03/18 04:50:09;;;;;;;17.13;11.35;;;;;;;1.82;100.00;100925.16;5063625;28;20036;-69
2023/03/18 04:52:35;;;;;;;16.02;9.63;;;;;;;2.20;100.00;100920.59;5057115;28;20071;-69
2023/03/18 04:55:01;;;;;;;16.40;9.68;;;;;;;2.43;100.00;100915.97;5060982;28;20060;-68
2023/03/18 04:57:27;;;;;;;22.27;10.20;;;;;;;2.51;100.00;100930.09;5061036;28;20032;-68
2023/03/18 04:59:53;;;;;;;20.25;10.55;;;;;;;2.42;100.00;100919.47;5061281;28;20573;-68
2023/03/18 05:02:18;;;;;;;21.60;9.25;;;;;;;2.52;100.00;100925.78;5062037;28;20032;-68
2023/03/18 05:04:44;;;;;;;18.25;10.18;;;;;;;2.63;100.00;100926.03;5062212;28;20493;-68
2023/03/18 05:07:14;;;;;;;16.70;10.35;;;;;;;2.48;100.00;100932.00;5060059;28;20028;-68
2023/03/18 05:09:40;;;;;;;17.85;10.30;;;;;;;2.32;100.00;100930.25;5059121;28;20449;-69
2023/03/18 05:12:10;;;;;;;16.58;10.20;;;;;;;2.35;100.00;100929.25;5062514;28;20102;-69
2023/03/18 05:14:35;;;;;;;22.10;9.45;;;;;;;2.66;100.00;100931.84;5063506;28;20024;-68
2023/03/18 05:17:03;;;;;;;24.35;10.00;;;;;;;2.88;100.00;100933.22;5059945;28;20020;-69
2023/03/18 05:19:28;;;;;;;22.33;10.27;;;;;;;2.96;100.00;100937.06;5062467;28;20035;-69
2023/03/18 05:21:54;;;;;;;17.20;9.75;;;;;;;3.08;100.00;100939.88;5066988;28;20028;-68
2023/03/18 05:24:20;;;;;;;16.75;10.15;;;;;;;3.06;100.00;100939.13;5059630;28;20055;-68
2023/03/18 05:26:46;;;;;;;18.17;9.48;;;;;;;3.09;100.00;100937.22;5061746;28;20545;-69
2023/03/18 05:29:12;;;;;;;24.92;11.02;;;;;;;3.21;100.00;100943.44;5058751;28;20043;-69
2023/03/18 05:31:38;;;;;;;16.45;9.13;;;;;;;3.13;100.00;100941.28;5061876;28;20040;-68
2023/03/18 05:34:05;;;;;;;19.48;9.55;;;;;;;3.04;100.00;100934.06;5058233;28;20055;-69
2023/03/18 05:36:31;;;;;;;20.33;9.63;;;;;;;2.93;100.00;100934.66;5063261;28;20134;-70
2023/03/18 05:38:57;;;;;;;16.77;9.20;;;;;;;3.05;100.00;100928.00;5056242;28;20033;-69
2023/03/18 05:41:23;;;;;;;19.38;9.73;;;;;;;3.10;100.00;100943.19;5061907;28;20033;-69
2023/03/18 05:43:48;;;;;;;21.83;10.15;;;;;;;3.15;100.00;100938.63;5056142;28;20154;-69
2023/03/18 05:46:14;;;;;;;18.13;9.63;;;;;;;3.07;100.00;100941.63;5059809;28;20036;-68
2023/03/18 05:48:40;;;;;;;21.48;10.63;;;;;;;2.93;100.00;100942.38;5061952;28;20030;-69
2023/03/18 05:51:06;;;;;;;19.13;11.27;;;;;;;2.80;100.00;100948.28;5069045;28;20032;-69
2023/03/18 05:53:32;;;;;;;18.98;11.95;;;;;;;2.74;100.00;100939.16;5069083;28;20067;-68
2023/03/18 05:55:58;;;;;;;19.98;11.02;;;;;;;2.76;100.00;100944.22;5067165;28;20062;-69
2023/03/18 05:58:24;;;;;;;19.98;11.40;;;;;;;2.85;100.00;100944.53;5063767;28;20138;-70
2023/03/18 06:00:50;;;;;;;22.58;11.60;;;;;;;2.99;100.00;100946.34;5062379;28;20052;-69
2023/03/18 06:03:17;;;;;;;21.60;11.93;;;;;;;3.24;100.00;100945.84;5062490;28;20526;-70
2023/03/18 06:05:42;;;;;;;19.45;11.07;;;;;;;3.31;100.00;100958.25;5061742;28;20024;-69
2023/03/18 06:08:08;;;;;;;22.23;11.27;;;;;;;3.38;100.00;100948.44;5061512;28;20040;-69
2023/03/18 06:10:33;;;;;;;21.83;12.55;;;;;;;3.42;100.00;100954.25;5063243;28;20045;-69
2023/03/18 06:12:59;;;;;;;20.58;11.30;;;;;;;3.40;100.00;100946.59;5062564;28;20076;-69
2023/03/18 06:15:24;;;;;;;22.35;12.00;;;;;;;3.45;100.00;100954.06;5066273;28;20052;-69
2023/03/18 06:17:51;;;;;;;18.73;10.73;;;;;;;3.62;100.00;100957.34;5062911;28;20392;-69
2023/03/18 06:20:18;;;;;;;22.75;11.23;;;;;;;3.73;100.00;100949.00;5062834;28;20036;-69
2023/03/18 06:22:48;;;;;;;20.23;10.05;;;;;;;3.87;100.00;100958.50;5063550;28;20044;-69
2023/03/18 06:25:15;;;;;;;20.35;10.43;;;;;;;4.04;100.00;100963.50;5063768;28;20045;-69
2023/03/18 06:27:40;;;;;;;20.80;10.73;;;;;;;4.19;99.25;100961.78;5062179;28;20039;-69
2023/03/18 06:30:07;;;;;;;18.00;9.48;;;;;;;4.31;98.18;100956.69;5061607;28;20033;-69
2023/03/18 06:32:32;;;;;;;16.38;9.50;;;;;;;4.46;97.59;100961.84;5062488;28;20581;-69
2023/03/18 06:34:58;;;;;;;19.98;11.32;;;;;;;4.60;96.06;100961.84;5061599;28;20063;-70
2023/03/18 06:37:24;;;;;;;21.27;9.65;;;;;;;4.74;95.26;100959.22;5057741;28;20037;-68
2023/03/18 06:39:50;;;;;;;16.88;9.75;;;;;;;4.87;95.19;100960.09;5061781;28;20140;-70
2023/03/18 06:42:15;;;;;;;19.95;10.68;;;;;;;5.02;93.90;100952.34;5056584;28;20036;-69
2023/03/18 06:44:49;;;;;;;16.58;10.13;;;;;;;5.17;93.24;100961.69;5062512;28;20028;-69
2023/03/18 06:47:18;;;;;;;16.13;9.65;;;;;;;5.34;92.80;100958.84;5057437;28;20389;-69
2023/03/18 06:49:44;;;;;;;14.93;9.02;;;;;;;5.45;90.93;100961.56;5059718;28;20195;-69
2023/03/18 06:52:10;;;;;;;20.92;8.93;;;;;;;5.50;90.58;100967.25;5065020;28;20115;-68
2023/03/18 06:54:35;;;;;;;14.80;9.27;;;;;;;5.65;89.68;100962.84;5067326;28;20025;-69
2023/03/18 06:57:01;;;;;;;19.23;9.50;;;;;;;5.79;88.86;100970.50;5060341;28;20036;-69
2023/03/18 06:59:26;;;;;;;17.73;9.30;;;;;;;6.04;88.20;100966.34;5063433;28;20052;-69
2023/03/18 07:01:52;;;;;;;19.73;9.35;;;;;;;6.25;87.11;100973.44;5066559;28;20039;-69
2023/03/18 07:04:19;;;;;;;14.15;8.43;;;;;;;6.50;86.92;100975.19;5065413;28;20029;-69
2023/03/18 07:06:45;;;;;;;18.55;9.40;;;;;;;6.58;84.87;100969.50;5059089;28;20070;-69
2023/03/18 07:09:11;;;;;;;19.00;8.85;;;;;;;6.85;84.35;100974.50;5058838;28;20028;-69
2023/03/18 07:11:36;;;;;;;18.70;8.77;;;;;;;7.07;83.41;100966.03;5063491;28;20119;-69
2023/03/18 07:14:02;;;;;;;14.93;8.43;;;;;;;7.65;80.77;100967.78;5063364;28;20557;-69
2023/03/18 07:16:29;;;;;;;14.73;9.48;;;;;;;8.02;78.65;100978.84;5063002;28;20032;-69
2023/03/18 07:18:57;;;;;;;15.32;8.30;;;;;;;7.91;78.46;100979.66;5060606;28;20341;-69
2023/03/18 07:21:22;;;;;;;15.45;9.20;;;;;;;7.88;79.04;100969.50;5064342;28;20024;-69
2023/03/18 07:23:48;;;;;;;14.20;8.65;;;;;;;7.86;79.37;100970.56;5062670;28;20383;-70
2023/03/18 07:26:13;;;;;;;17.15;9.25;;;;;;;7.86;79.03;100971.38;5061493;28;20398;-69
2023/03/18 07:28:39;;;;;;;15.55;9.15;;;;;;;7.82;79.29;100975.13;5063772;28;20033;-69
2023/03/18 07:31:05;;;;;;;18.52;9.60;;;;;;;7.87;79.65;100967.84;5060769;28;20587;-70
2023/03/18 07:33:31;;;;;;;17.25;9.02;;;;;;;8.03;77.59;100980.50;5059162;28;20039;-70
2023/03/18 07:35:57;;;;;;;16.75;9.80;;;;;;;8.37;78.00;100970.16;5056980;28;20032;-70
2023/03/18 07:38:22;;;;;;;17.67;9.18;;;;;;;8.52;77.22;100976.75;5059223;28;20032;-70
2023/03/18 07:40:48;;;;;;;15.77;9.00;;;;;;;8.80;76.92;100978.88;5064022;28;20063;-69
2023/03/18 07:43:14;;;;;;;18.27;10.10;;;;;;;9.04;75.48;100989.06;5056150;28;20055;-69
2023/03/18 07:45:40;;;;;;;16.35;9.00;;;;;;;9.07;74.81;100983.63;5052725;28;20144;-69
2023/03/18 07:48:05;;;;;;;16.23;9.25;;;;;;;9.04;74.73;100986.47;5062823;28;21379;-70
2023/03/18 07:50:31;;;;;;;20.40;10.05;;;;;;;9.00;75.02;100990.25;5061291;28;20039;-70
2023/03/18 07:52:57;;;;;;;16.70;9.60;;;;;;;9.20;74.48;100996.50;5058993;28;20063;-70
2023/03/18 07:55:22;;;;;;;15.77;9.65;;;;;;;9.68;72.03;100996.06;5056863;28;20121;-70
2023/03/18 07:57:48;;;;;;;15.95;9.30;;;;;;;9.72;72.70;101002.66;5059365;28;20131;-70
2023/03/18 08:00:14;;;;;;;17.70;8.98;;;;;;;9.75;72.50;101002.41;5063363;28;20029;-70
2023/03/18 08:02:40;;;;;;;22.60;9.52;;;;;;;9.67;72.48;100999.63;5064636;28;20036;-71
2023/03/18 08:05:06;;;;;;;21.70;9.98;;;;;;;9.92;72.61;101002.66;5061590;28;20051;-70
2023/03/18 08:07:33;;;;;;;19.23;10.55;;;;;;;10.15;71.66;101005.97;5061674;28;20044;-70
2023/03/18 08:09:59;;;;;;;18.90;10.18;;;;;;;10.58;70.67;101011.00;5065258;28;20051;-70
2023/03/18 08:12:25;;;;;;;23.30;11.63;;;;;;;10.66;69.87;101010.34;5061809;28;20028;-70
2023/03/18 08:14:51;;;;;;;21.20;10.70;;;;;;;10.71;69.40;101018.59;5058397;28;20025;-71
2023/03/18 08:17:16;;;;;;;18.77;10.30;;;;;;;10.67;68.32;101008.56;5058646;28;20037;-70
2023/03/18 08:19:42;;;;;;;19.60;10.32;;;;;;;10.88;67.82;101014.50;5063133;28;20068;-70
2023/03/18 08:22:08;;;;;;;18.17;9.50;;;;;;;11.28;66.57;101011.84;5058452;28;20032;-69
2023/03/18 08:24:36;;;;;;;21.63;10.80;;;;;;;11.23;65.94;101014.88;5061476;28;20044;-69
2023/03/18 08:27:02;;;;;;;20.27;10.52;;;;;;;11.46;66.19;101004.97;5062813;28;20123;-69
2023/03/18 08:29:27;;;;;;;20.58;10.75;;;;;;;11.31;64.91;101008.97;5080638;28;20385;-69
2023/03/18 08:31:53;;;;;;;19.27;11.45;;;;;;;11.07;64.25;101008.50;5060535;28;20033;-69
2023/03/18 08:34:18;;;;;;;25.70;12.20;;;;;;;11.18;65.51;101011.84;5059543;28;20039;-69
2023/03/18 08:36:44;;;;;;;23.98;11.32;;;;;;;11.29;65.23;101013.50;5059460;28;20032;-71
2023/03/18 08:39:09;;;;;;;19.88;11.05;;;;;;;11.83;64.86;101014.75;5063639;28;20131;-71
2023/03/18 08:41:35;;;;;;;21.20;11.23;;;;;;;12.51;62.99;101003.16;5062755;28;20039;-71
2023/03/18 08:44:05;;;;;;;19.17;10.82;;;;;;;13.28;59.99;101012.38;5060337;28;20037;-71
2023/03/18 08:46:30;;;;;;;23.40;11.00;;;;;;;13.44;59.51;101009.91;5062565;28;20024;-68
2023/03/18 08:48:56;;;;;;;17.92;11.02;;;;;;;13.93;58.46;101002.47;5067659;28;20492;-68
2023/03/18 08:51:21;;;;;;;18.75;10.35;;;;;;;14.97;55.34;101008.41;5065364;28;20024;-70
2023/03/18 08:53:47;;;;;;;18.23;10.45;;;;;;;15.02;54.12;101005.31;5061654;28;20024;-69
2023/03/18 08:56:14;;;;;;;19.50;11.18;;;;;;;15.64;52.09;100995.22;5058749;28;20043;-69
2023/03/18 08:58:40;;;;;;;18.80;10.13;;;;;;;16.32;51.34;100992.97;5060533;28;20113;-68
2023/03/18 09:01:06;;;;;;;17.10;9.68;;;;;;;16.71;49.63;100995.66;5055895;28;20415;-68
2023/03/18 09:03:33;;;;;;;17.70;9.27;;;;;;;17.21;49.11;100994.38;5057051;28;20025;-68
2023/03/18 09:05:59;;;;;;;18.08;10.27;;;;;;;17.51;47.27;100997.94;5060586;28;20027;-70
2023/03/18 09:08:24;;;;;;;15.75;9.07;;;;;;;17.92;46.62;100995.81;5059496;28;20420;-69
2023/03/18 09:10:55;;;;;;;24.42;10.63;;;;;;;17.84;45.52;100993.25;5066697;28;20024;-70
2023/03/18 09:13:21;;;;;;;17.20;10.60;;;;;;;16.40;48.67;100992.13;5058176;28;20107;-70
2023/03/18 09:15:47;;;;;;;18.67;8.90;;;;;;;14.06;52.96;100996.81;5063990;28;20430;-69
2023/03/18 09:18:13;;;;;;;16.33;9.52;;;;;;;12.66;56.51;101000.06;5067050;28;20036;-70
2023/03/18 09:20:40;;;;;;;17.13;8.98;;;;;;;12.34;58.67;100995.25;5056902;28;20041;-69
2023/03/18 09:23:06;;;;;;;17.95;9.60;;;;;;;12.24;59.62;101001.34;5062635;28;20091;-69
2023/03/18 09:25:32;;;;;;;18.98;10.45;;;;;;;12.02;59.79;100998.22;5055668;28;20037;-69
2023/03/18 09:27:59;;;;;;;15.75;9.40;;;;;;;11.79;60.22;100995.94;5068579;28;20041;-69
2023/03/18 09:30:25;;;;;;;17.50;9.57;;;;;;;11.72;60.33;100994.00;5066888;28;20176;-69
2023/03/18 09:32:50;;;;;;;15.88;9.70;;;;;;;11.42;61.39;100998.38;5067317;28;20036;-70
2023/03/18 09:35:16;;;;;;;17.90;10.50;;;;;;;11.30;61.38;100994.28;5057521;28;20029;-70
2023/03/18 09:37:42;;;;;;;14.00;7.88;;;;;;;11.50;60.20;100993.31;5054621;28;20505;-71
2023/03/18 09:40:20;;;;;;;15.18;7.93;;;;;;;11.70;59.55;100995.91;5057175;28;20083;-68
2023/03/18 09:43:03;;;;;;;14.95;8.52;;;;;;;11.60;60.09;100991.53;5065619;28;20062;-70
2023/03/18 09:45:34;;;;;;;18.17;9.40;;;;;;;11.39;60.51;100990.84;5064837;28;20120;-70
2023/03/18 09:48:26;;;;;;;15.18;8.73;;;;;;;11.35;60.25;100986.03;5069098;28;20508;-70
2023/03/18 09:51:10;;;;;;;15.88;8.80;;;;;;;11.44;60.38;100983.41;5071353;28;20028;-71
2023/03/18 09:53:51;;;;;;;17.38;7.88;;;;;;;11.45;59.85;100987.69;5068397;28;20028;-71
2023/03/18 09:56:23;;;;;;;17.02;8.20;;;;;;;11.59;60.83;100976.81;5071153;28;20051;-71
2023/03/18 09:59:06;;;;;;;16.35;9.15;;;;;;;11.57;60.39;100977.94;5067781;28;20098;-70
2023/03/18 10:01:36;;;;;;;15.60;8.57;;;;;;;11.48;61.08;100986.59;5071080;28;20392;-70
2023/03/18 10:04:10;;;;;;;18.40;7.85;;;;;;;11.52;59.10;100982.72;5059369;28;20093;-70
2023/03/18 10:06:41;;;;;;;15.52;8.68;;;;;;;11.64;60.15;100981.63;5066356;28;20075;-71
2023/03/18 10:09:29;;;;;;;13.43;6.63;;;;;;;11.57;59.13;100988.38;5069145;28;20028;-70
2023/03/18 10:12:22;;;;;;;10.20;5.78;;;;;;;11.50;57.59;100982.88;5066283;28;20478;-71
2023/03/18 10:15:12;;;;;;;12.07;5.82;;;;;;;11.57;58.74;100983.97;5068470;28;20130;-67
2023/03/18 10:17:40;;;;;;;9.13;4.38;;;;;;;11.66;58.71;100986.72;5067432;28;20045;-67
2023/03/18 10:20:45;;;;;;;9.48;4.85;;;;;;;11.88;55.03;100989.03;5063865;28;20055;-70
2023/03/18 10:23:48;;;;;;;8.30;4.45;;;;;;;11.87;54.83;100990.00;5067865;28;20071;-72
2023/03/18 10:26:27;;;;;;;9.05;4.70;;;;;;;11.76;56.37;100984.94;5059705;28;20048;-70
2023/03/18 10:29:12;;;;;;;10.55;4.47;;;;;;;11.64;55.68;100986.84;5062315;28;20028;-74
2023/03/18 10:31:52;;;;;;;9.65;4.10;;;;;;;11.63;56.14;100991.25;5072007;28;20029;-70
2023/03/18 10:34:21;;;;;;;11.55;5.40;;;;;;;11.73;57.12;100987.81;5064095;28;20464;-72
2023/03/18 10:37:17;;;;;;;9.88;4.80;;;;;;;11.70;55.30;100986.31;5060174;28;20393;-71
2023/03/18 10:39:45;;;;;;;12.43;5.28;;;;;;;11.78;57.13;100977.81;5063831;28;20037;-71
2023/03/18 10:42:22;;;;;;;13.48;5.40;;;;;;;11.85;57.28;100981.47;5069006;28;20405;-69
2023/03/18 10:44:49;;;;;;;7.53;4.38;;;;;;;11.87;57.36;100977.78;5063201;28;20075;-70
2023/03/18 10:47:27;;;;;;;12.18;5.20;;;;;;;11.81;57.01;100980.16;5065560;28;20036;-70
2023/03/18 10:50:10;;;;;;;10.20;5.20;;;;;;;11.87;56.88;100982.16;5067347;28;20473;-71
2023/03/18 10:52:46;;;;;;;10.00;5.50;;;;;;;11.96;53.01;100973.50;5068363;28;20040;-69
2023/03/18 10:55:17;;;;;;;11.80;5.28;;;;;;;12.01;54.55;100973.91;5069304;28;20392;-71
2023/03/18 10:57:43;;;;;;;6.75;3.80;;;;;;;12.19;55.19;100966.97;5063628;28;20063;-70
2023/03/18 11:00:25;;;;;;;9.95;4.35;;;;;;;12.31;53.72;100970.22;5068396;28;20036;-71
2023/03/18 11:02:51;;;;;;;12.40;4.90;;;;;;;12.16;54.92;100972.50;5062326;28;20089;-67
2023/03/18 11:05:30;;;;;;;10.98;4.88;;;;;;;12.19;52.45;100977.44;5065147;28;20025;-71
2023/03/18 11:08:10;;;;;;;11.73;5.20;;;;;;;12.30;53.89;100976.41;5068421;28;20541;-72
2023/03/18 11:10:44;;;;;;;9.20;4.68;;;;;;;12.36;54.09;100967.19;5061867;28;20042;-71
2023/03/18 11:13:18;;;;;;;8.52;3.83;;;;;;;12.37;53.76;100971.44;5068334;28;20028;-71
2023/03/18 11:15:48;;;;;;;8.98;3.75;;;;;;;12.46;52.62;100962.75;5074456;28;20043;-71
2023/03/18 11:18:16;;;;;;;11.10;4.80;;;;;;;12.45;53.59;100963.72;5074311;28;20078;-74
2023/03/18 11:20:44;;;;;;;6.97;3.92;;;;;;;12.37;51.47;100968.81;5064666;28;20436;-74